sensor_id;sensor_type;location;lat;lon;timestamp;temperature;humidity
12130;DHT22;6128;59.340;18.040;2023-09-07T00:01:56;14.10;99.90
12130;DHT22;6128;59.340;18.040;2023-09-07T00:04:24;14.10;99.90
12130;DHT22;6128;59.340;18.040;2023-09-07T00:06:51;14.10;99.90
12130;DHT22;6128;59.340;18.040;2023-09-07T00:09:18;14.10;99.90
12130;DHT22;6128;59.340;18.040;2023-09-07T00:11:47;14.10;99.90
12130;DHT22;6128;59.340;18.040;2023-09-07T00:14:16;14.10;99.90
12130;DHT22;6128;59.340;18.040;2023-09-07T00:16:43;14.00;99.90
12130;DHT22;6128;59.340;18.040;2023-09-07T00:19:10;14.00;99.90
12130;DHT22;6128;59.340;18.040;2023-09-07T00:21:37;14.00;99.90
12130;DHT22;6128;59.340;18.040;2023-09-07T00:24:05;14.00;99.90
12130;DHT22;6128;59.340;18.040;2023-09-07T00:26:32;14.00;99.90
12130;DHT22;6128;59.340;18.040;2023-09-07T00:28:59;14.00;99.90
12130;DHT22;6128;59.340;18.040;2023-09-07T00:31:28;14.00;99.90
12130;DHT22;6128;59.340;18.040;2023-09-07T00:33:55;14.00;99.90
12130;DHT22;6128;59.340;18.040;2023-09-07T00:36:22;14.00;99.90
12130;DHT22;6128;59.340;18.040;2023-09-07T00:38:49;14.00;99.90
12130;DHT22;6128;59.340;18.040;2023-09-07T00:41:16;14.00;99.90
12130;DHT22;6128;59.340;18.040;2023-09-07T00:43:43;14.00;99.90
12130;DHT22;6128;59.340;18.040;2023-09-07T00:46:10;14.00;99.90
12130;DHT22;6128;59.340;18.040;2023-09-07T00:48:39;14.00;99.90
12130;DHT22;6128;59.340;18.040;2023-09-07T00:51:07;14.00;99.90
12130;DHT22;6128;59.340;18.040;2023-09-07T00:53:34;14.00;99.90
12130;DHT22;6128;59.340;18.040;2023-09-07T00:56:02;14.00;99.90
12130;DHT22;6128;59.340;18.040;2023-09-07T00:58:29;14.00;99.90
12130;DHT22;6128;59.340;18.040;2023-09-07T01:00:57;14.00;99.90
12130;DHT22;6128;59.340;18.040;2023-09-07T01:03:24;14.00;99.90
12130;DHT22;6128;59.340;18.040;2023-09-07T01:05:57;14.00;99.90
12130;DHT22;6128;59.340;18.040;2023-09-07T01:08:31;13.90;99.90
12130;DHT22;6128;59.340;18.040;2023-09-07T01:10:59;13.90;99.90
12130;DHT22;6128;59.340;18.040;2023-09-07T01:13:26;13.90;99.90
12130;DHT22;6128;59.340;18.040;2023-09-07T01:15:54;13.80;99.90
12130;DHT22;6128;59.340;18.040;2023-09-07T01:18:21;13.80;99.90
12130;DHT22;6128;59.340;18.040;2023-09-07T01:20:48;13.80;99.90
12130;DHT22;6128;59.340;18.040;2023-09-07T01:23:17;13.80;99.90
12130;DHT22;6128;59.340;18.040;2023-09-07T01:25:45;13.70;99.90
12130;DHT22;6128;59.340;18.040;2023-09-07T01:28:13;13.70;99.90
12130;DHT22;6128;59.340;18.040;2023-09-07T01:30:40;13.70;99.90
12130;DHT22;6128;59.340;18.040;2023-09-07T01:33:07;13.70;99.90
12130;DHT22;6128;59.340;18.040;2023-09-07T01:35:36;13.60;99.90
12130;DHT22;6128;59.340;18.040;2023-09-07T01:38:03;13.60;99.90
12130;DHT22;6128;59.340;18.040;2023-09-07T01:40:32;13.60;99.90
12130;DHT22;6128;59.340;18.040;2023-09-07T01:42:59;13.60;99.90
12130;DHT22;6128;59.340;18.040;2023-09-07T01:45:26;13.70;99.90
12130;DHT22;6128;59.340;18.040;2023-09-07T01:47:53;13.60;99.90
12130;DHT22;6128;59.340;18.040;2023-09-07T01:50:20;13.60;99.90
12130;DHT22;6128;59.340;18.040;2023-09-07T01:52:47;13.60;99.90
12130;DHT22;6128;59.340;18.040;2023-09-07T01:55:15;13.60;99.90
12130;DHT22;6128;59.340;18.040;2023-09-07T01:57:43;13.60;99.90
12130;DHT22;6128;59.340;18.040;2023-09-07T02:00:11;13.60;99.90
12130;DHT22;6128;59.340;18.040;2023-09-07T02:02:39;13.60;99.90
12130;DHT22;6128;59.340;18.040;2023-09-07T02:05:06;13.60;99.90
12130;DHT22;6128;59.340;18.040;2023-09-07T02:07:33;13.60;99.90
12130;DHT22;6128;59.340;18.040;2023-09-07T02:10:01;13.60;99.90
12130;DHT22;6128;59.340;18.040;2023-09-07T02:12:29;13.60;99.90
12130;DHT22;6128;59.340;18.040;2023-09-07T02:15:00;13.60;99.90
12130;DHT22;6128;59.340;18.040;2023-09-07T02:17:28;13.60;99.90
12130;DHT22;6128;59.340;18.040;2023-09-07T02:19:55;13.60;99.90
12130;DHT22;6128;59.340;18.040;2023-09-07T02:22:23;13.60;99.90
12130;DHT22;6128;59.340;18.040;2023-09-07T02:24:50;13.60;99.90
12130;DHT22;6128;59.340;18.040;2023-09-07T02:27:17;13.60;99.90
12130;DHT22;6128;59.340;18.040;2023-09-07T02:29:44;13.60;99.90
12130;DHT22;6128;59.340;18.040;2023-09-07T02:32:12;13.60;99.90
12130;DHT22;6128;59.340;18.040;2023-09-07T02:34:39;13.60;99.90
12130;DHT22;6128;59.340;18.040;2023-09-07T02:37:07;13.60;99.90
12130;DHT22;6128;59.340;18.040;2023-09-07T02:39:35;13.60;99.90
12130;DHT22;6128;59.340;18.040;2023-09-07T02:42:02;13.60;99.90
12130;DHT22;6128;59.340;18.040;2023-09-07T02:44:29;13.60;99.90
12130;DHT22;6128;59.340;18.040;2023-09-07T02:46:56;13.60;99.90
12130;DHT22;6128;59.340;18.040;2023-09-07T02:49:25;13.60;99.90
12130;DHT22;6128;59.340;18.040;2023-09-07T02:51:52;13.60;99.90
12130;DHT22;6128;59.340;18.040;2023-09-07T02:54:19;13.60;99.90
12130;DHT22;6128;59.340;18.040;2023-09-07T02:56:46;13.60;99.90
12130;DHT22;6128;59.340;18.040;2023-09-07T02:59:13;13.60;99.90
12130;DHT22;6128;59.340;18.040;2023-09-07T03:01:40;13.60;99.90
12130;DHT22;6128;59.340;18.040;2023-09-07T03:04:07;13.60;99.90
12130;DHT22;6128;59.340;18.040;2023-09-07T03:06:36;13.60;99.90
12130;DHT22;6128;59.340;18.040;2023-09-07T03:09:03;13.60;99.90
12130;DHT22;6128;59.340;18.040;2023-09-07T03:11:34;13.50;99.90
12130;DHT22;6128;59.340;18.040;2023-09-07T03:14:01;13.50;99.90
12130;DHT22;6128;59.340;18.040;2023-09-07T03:16:28;13.50;99.90
12130;DHT22;6128;59.340;18.040;2023-09-07T03:18:55;13.50;99.90
12130;DHT22;6128;59.340;18.040;2023-09-07T03:21:22;13.50;99.90
12130;DHT22;6128;59.340;18.040;2023-09-07T03:23:56;13.50;99.90
12130;DHT22;6128;59.340;18.040;2023-09-07T03:26:23;13.50;99.90
12130;DHT22;6128;59.340;18.040;2023-09-07T03:28:50;13.50;99.90
12130;DHT22;6128;59.340;18.040;2023-09-07T03:31:17;13.40;99.90
12130;DHT22;6128;59.340;18.040;2023-09-07T03:33:45;13.40;99.90
12130;DHT22;6128;59.340;18.040;2023-09-07T03:36:12;13.40;99.90
12130;DHT22;6128;59.340;18.040;2023-09-07T03:38:40;13.40;99.90
12130;DHT22;6128;59.340;18.040;2023-09-07T03:41:09;13.40;99.90
12130;DHT22;6128;59.340;18.040;2023-09-07T03:43:36;13.40;99.90
12130;DHT22;6128;59.340;18.040;2023-09-07T03:46:03;13.40;99.90
12130;DHT22;6128;59.340;18.040;2023-09-07T03:48:30;13.40;99.90
12130;DHT22;6128;59.340;18.040;2023-09-07T03:50:57;13.40;99.90
12130;DHT22;6128;59.340;18.040;2023-09-07T03:53:24;13.40;99.90
12130;DHT22;6128;59.340;18.040;2023-09-07T03:55:51;13.40;99.90
12130;DHT22;6128;59.340;18.040;2023-09-07T03:58:19;13.40;99.90
12130;DHT22;6128;59.340;18.040;2023-09-07T04:00:46;13.40;99.90
12130;DHT22;6128;59.340;18.040;2023-09-07T04:03:13;13.40;99.90
12130;DHT22;6128;59.340;18.040;2023-09-07T04:05:41;13.40;99.90
12130;DHT22;6128;59.340;18.040;2023-09-07T04:08:08;13.40;99.90
12130;DHT22;6128;59.340;18.040;2023-09-07T04:10:37;13.40;99.90
12130;DHT22;6128;59.340;18.040;2023-09-07T04:13:04;13.50;99.90
12130;DHT22;6128;59.340;18.040;2023-09-07T04:15:33;13.50;99.90
12130;DHT22;6128;59.340;18.040;2023-09-07T04:18:00;13.50;99.90
12130;DHT22;6128;59.340;18.040;2023-09-07T04:20:27;13.50;99.90
12130;DHT22;6128;59.340;18.040;2023-09-07T04:22:54;13.50;99.90
12130;DHT22;6128;59.340;18.040;2023-09-07T04:25:22;13.50;99.90
12130;DHT22;6128;59.340;18.040;2023-09-07T04:27:49;13.50;99.90
12130;DHT22;6128;59.340;18.040;2023-09-07T04:30:16;13.60;99.90
12130;DHT22;6128;59.340;18.040;2023-09-07T04:32:44;13.60;99.90
12130;DHT22;6128;59.340;18.040;2023-09-07T04:35:13;13.60;99.90
12130;DHT22;6128;59.340;18.040;2023-09-07T04:37:42;13.60;99.90
12130;DHT22;6128;59.340;18.040;2023-09-07T04:40:10;13.70;99.90
12130;DHT22;6128;59.340;18.040;2023-09-07T04:42:37;13.70;99.90
12130;DHT22;6128;59.340;18.040;2023-09-07T04:45:05;13.70;99.90
12130;DHT22;6128;59.340;18.040;2023-09-07T04:47:32;13.80;99.90
12130;DHT22;6128;59.340;18.040;2023-09-07T04:50:00;13.80;99.90
12130;DHT22;6128;59.340;18.040;2023-09-07T04:52:29;13.90;99.90
12130;DHT22;6128;59.340;18.040;2023-09-07T04:54:57;13.90;99.90
12130;DHT22;6128;59.340;18.040;2023-09-07T04:57:24;13.90;99.90
12130;DHT22;6128;59.340;18.040;2023-09-07T04:59:51;13.90;99.90
12130;DHT22;6128;59.340;18.040;2023-09-07T05:02:18;13.90;99.90
12130;DHT22;6128;59.340;18.040;2023-09-07T05:04:45;14.00;99.90
12130;DHT22;6128;59.340;18.040;2023-09-07T05:07:13;14.00;99.90
12130;DHT22;6128;59.340;18.040;2023-09-07T05:09:40;14.00;99.90
12130;DHT22;6128;59.340;18.040;2023-09-07T05:12:07;14.10;99.90
12130;DHT22;6128;59.340;18.040;2023-09-07T05:14:34;14.10;99.90
12130;DHT22;6128;59.340;18.040;2023-09-07T05:17:01;14.10;99.90
12130;DHT22;6128;59.340;18.040;2023-09-07T05:19:29;14.10;99.90
12130;DHT22;6128;59.340;18.040;2023-09-07T05:21:56;14.10;99.90
12130;DHT22;6128;59.340;18.040;2023-09-07T05:24:24;14.10;99.90
12130;DHT22;6128;59.340;18.040;2023-09-07T05:26:51;14.20;99.90
12130;DHT22;6128;59.340;18.040;2023-09-07T05:29:18;14.20;99.90
12130;DHT22;6128;59.340;18.040;2023-09-07T05:31:47;14.20;99.90
12130;DHT22;6128;59.340;18.040;2023-09-07T05:34:14;14.20;99.90
12130;DHT22;6128;59.340;18.040;2023-09-07T05:36:41;14.30;99.90
12130;DHT22;6128;59.340;18.040;2023-09-07T05:39:08;14.30;99.90
12130;DHT22;6128;59.340;18.040;2023-09-07T05:41:36;14.30;99.90
12130;DHT22;6128;59.340;18.040;2023-09-07T05:44:06;14.40;99.90
12130;DHT22;6128;59.340;18.040;2023-09-07T05:46:33;14.40;99.90
12130;DHT22;6128;59.340;18.040;2023-09-07T05:49:00;14.50;99.90
12130;DHT22;6128;59.340;18.040;2023-09-07T05:51:27;14.50;99.90
12130;DHT22;6128;59.340;18.040;2023-09-07T05:53:54;14.60;99.90
12130;DHT22;6128;59.340;18.040;2023-09-07T05:56:22;14.60;99.90
12130;DHT22;6128;59.340;18.040;2023-09-07T05:58:50;14.70;99.90
12130;DHT22;6128;59.340;18.040;2023-09-07T06:01:17;14.70;99.90
12130;DHT22;6128;59.340;18.040;2023-09-07T06:03:44;14.80;99.90
12130;DHT22;6128;59.340;18.040;2023-09-07T06:06:11;14.80;99.90
12130;DHT22;6128;59.340;18.040;2023-09-07T06:08:41;14.90;99.90
12130;DHT22;6128;59.340;18.040;2023-09-07T06:11:08;14.90;99.90
12130;DHT22;6128;59.340;18.040;2023-09-07T06:13:35;14.90;99.90
12130;DHT22;6128;59.340;18.040;2023-09-07T06:16:03;15.00;99.90
12130;DHT22;6128;59.340;18.040;2023-09-07T06:18:30;15.10;99.90
12130;DHT22;6128;59.340;18.040;2023-09-07T06:20:57;15.20;99.90
12130;DHT22;6128;59.340;18.040;2023-09-07T06:23:24;15.20;99.90
12130;DHT22;6128;59.340;18.040;2023-09-07T06:25:51;15.40;99.90
12130;DHT22;6128;59.340;18.040;2023-09-07T06:28:18;15.50;99.90
12130;DHT22;6128;59.340;18.040;2023-09-07T06:30:46;15.50;99.90
12130;DHT22;6128;59.340;18.040;2023-09-07T06:33:14;15.60;99.90
12130;DHT22;6128;59.340;18.040;2023-09-07T06:35:42;15.80;99.90
12130;DHT22;6128;59.340;18.040;2023-09-07T06:38:10;15.90;99.90
12130;DHT22;6128;59.340;18.040;2023-09-07T06:40:37;16.10;99.90
12130;DHT22;6128;59.340;18.040;2023-09-07T06:43:04;16.20;99.90
12130;DHT22;6128;59.340;18.040;2023-09-07T06:45:34;16.40;99.90
12130;DHT22;6128;59.340;18.040;2023-09-07T06:48:01;16.90;99.90
12130;DHT22;6128;59.340;18.040;2023-09-07T06:50:29;17.80;99.90
12130;DHT22;6128;59.340;18.040;2023-09-07T06:52:57;18.90;99.90
12130;DHT22;6128;59.340;18.040;2023-09-07T06:55:24;19.90;99.90
12130;DHT22;6128;59.340;18.040;2023-09-07T06:57:51;20.70;99.90
12130;DHT22;6128;59.340;18.040;2023-09-07T07:00:21;21.20;99.90
12130;DHT22;6128;59.340;18.040;2023-09-07T07:02:48;21.40;99.90
12130;DHT22;6128;59.340;18.040;2023-09-07T07:05:15;21.80;99.90
12130;DHT22;6128;59.340;18.040;2023-09-07T07:07:44;22.20;99.90
12130;DHT22;6128;59.340;18.040;2023-09-07T07:10:11;22.60;99.90
12130;DHT22;6128;59.340;18.040;2023-09-07T07:12:38;22.70;99.90
12130;DHT22;6128;59.340;18.040;2023-09-07T07:15:06;23.00;99.90
12130;DHT22;6128;59.340;18.040;2023-09-07T07:17:34;23.10;99.90
12130;DHT22;6128;59.340;18.040;2023-09-07T07:20:01;23.60;99.90
12130;DHT22;6128;59.340;18.040;2023-09-07T07:22:28;23.90;99.90
12130;DHT22;6128;59.340;18.040;2023-09-07T07:24:56;23.70;99.90
12130;DHT22;6128;59.340;18.040;2023-09-07T07:27:24;24.20;99.90
12130;DHT22;6128;59.340;18.040;2023-09-07T07:29:51;24.00;99.90
12130;DHT22;6128;59.340;18.040;2023-09-07T07:32:18;23.60;99.90
12130;DHT22;6128;59.340;18.040;2023-09-07T07:34:45;23.50;99.90
12130;DHT22;6128;59.340;18.040;2023-09-07T07:37:13;23.80;99.90
12130;DHT22;6128;59.340;18.040;2023-09-07T07:39:40;24.10;99.90
12130;DHT22;6128;59.340;18.040;2023-09-07T07:42:08;24.40;99.90
12130;DHT22;6128;59.340;18.040;2023-09-07T07:44:35;24.80;99.90
12130;DHT22;6128;59.340;18.040;2023-09-07T07:47:02;25.10;99.90
12130;DHT22;6128;59.340;18.040;2023-09-07T07:49:30;25.20;99.90
12130;DHT22;6128;59.340;18.040;2023-09-07T07:51:58;25.20;99.90
12130;DHT22;6128;59.340;18.040;2023-09-07T07:54:25;25.40;99.90
12130;DHT22;6128;59.340;18.040;2023-09-07T07:56:54;25.50;99.90
12130;DHT22;6128;59.340;18.040;2023-09-07T07:59:22;25.30;99.90
12130;DHT22;6128;59.340;18.040;2023-09-07T08:01:49;25.00;99.90
12130;DHT22;6128;59.340;18.040;2023-09-07T08:04:16;25.10;99.90
12130;DHT22;6128;59.340;18.040;2023-09-07T08:06:43;25.20;99.90
12130;DHT22;6128;59.340;18.040;2023-09-07T08:09:10;25.40;99.90
12130;DHT22;6128;59.340;18.040;2023-09-07T08:11:39;25.50;99.90
12130;DHT22;6128;59.340;18.040;2023-09-07T08:14:06;25.10;99.90
12130;DHT22;6128;59.340;18.040;2023-09-07T08:16:34;24.60;99.90
12130;DHT22;6128;59.340;18.040;2023-09-07T08:19:02;23.80;99.90
12130;DHT22;6128;59.340;18.040;2023-09-07T08:21:29;23.30;99.90
12130;DHT22;6128;59.340;18.040;2023-09-07T08:23:56;22.70;99.90
12130;DHT22;6128;59.340;18.040;2023-09-07T08:26:23;22.30;99.90
12130;DHT22;6128;59.340;18.040;2023-09-07T08:28:50;21.90;99.90
12130;DHT22;6128;59.340;18.040;2023-09-07T08:31:17;21.70;99.90
12130;DHT22;6128;59.340;18.040;2023-09-07T08:33:49;21.50;99.90
12130;DHT22;6128;59.340;18.040;2023-09-07T08:36:17;21.40;99.90
12130;DHT22;6128;59.340;18.040;2023-09-07T08:38:44;21.30;99.90
12130;DHT22;6128;59.340;18.040;2023-09-07T08:41:11;21.20;99.90
12130;DHT22;6128;59.340;18.040;2023-09-07T08:43:45;21.10;99.90
12130;DHT22;6128;59.340;18.040;2023-09-07T08:46:14;21.00;99.90
12130;DHT22;6128;59.340;18.040;2023-09-07T08:48:43;20.90;99.90
12130;DHT22;6128;59.340;18.040;2023-09-07T08:51:15;20.80;99.90
12130;DHT22;6128;59.340;18.040;2023-09-07T08:53:42;20.70;99.90
12130;DHT22;6128;59.340;18.040;2023-09-07T08:56:12;20.60;99.90
12130;DHT22;6128;59.340;18.040;2023-09-07T08:58:39;20.80;99.90
12130;DHT22;6128;59.340;18.040;2023-09-07T09:01:07;21.30;99.90
12130;DHT22;6128;59.340;18.040;2023-09-07T09:03:35;22.50;99.90
12130;DHT22;6128;59.340;18.040;2023-09-07T09:06:03;23.70;99.90
12130;DHT22;6128;59.340;18.040;2023-09-07T09:08:43;24.60;99.90
12130;DHT22;6128;59.340;18.040;2023-09-07T09:11:10;25.20;99.90
12130;DHT22;6128;59.340;18.040;2023-09-07T09:13:39;25.80;99.90
12130;DHT22;6128;59.340;18.040;2023-09-07T09:16:06;25.70;99.90
12130;DHT22;6128;59.340;18.040;2023-09-07T09:18:33;25.00;99.90
12130;DHT22;6128;59.340;18.040;2023-09-07T09:21:00;24.10;99.90
12130;DHT22;6128;59.340;18.040;2023-09-07T09:23:30;23.30;99.90
12130;DHT22;6128;59.340;18.040;2023-09-07T09:26:00;22.60;99.90
12130;DHT22;6128;59.340;18.040;2023-09-07T09:28:30;22.00;99.90
12130;DHT22;6128;59.340;18.040;2023-09-07T09:30:58;21.60;99.90
12130;DHT22;6128;59.340;18.040;2023-09-07T09:33:26;21.30;99.90
12130;DHT22;6128;59.340;18.040;2023-09-07T09:35:54;21.10;99.90
12130;DHT22;6128;59.340;18.040;2023-09-07T09:38:22;20.90;99.90
12130;DHT22;6128;59.340;18.040;2023-09-07T09:40:49;20.80;99.90
12130;DHT22;6128;59.340;18.040;2023-09-07T09:43:20;20.80;99.90
12130;DHT22;6128;59.340;18.040;2023-09-07T09:45:49;20.80;99.90
12130;DHT22;6128;59.340;18.040;2023-09-07T09:48:19;20.80;99.90
12130;DHT22;6128;59.340;18.040;2023-09-07T09:50:46;20.70;99.90
12130;DHT22;6128;59.340;18.040;2023-09-07T09:53:15;20.70;99.90
12130;DHT22;6128;59.340;18.040;2023-09-07T09:55:45;20.80;99.90
12130;DHT22;6128;59.340;18.040;2023-09-07T09:58:13;20.90;99.90
12130;DHT22;6128;59.340;18.040;2023-09-07T10:00:43;21.00;99.90
12130;DHT22;6128;59.340;18.040;2023-09-07T10:03:15;21.20;99.90
12130;DHT22;6128;59.340;18.040;2023-09-07T10:05:44;21.30;99.90
12130;DHT22;6128;59.340;18.040;2023-09-07T10:08:13;21.30;99.90
12130;DHT22;6128;59.340;18.040;2023-09-07T10:10:41;21.30;99.90
12130;DHT22;6128;59.340;18.040;2023-09-07T10:13:09;21.30;99.90
12130;DHT22;6128;59.340;18.040;2023-09-07T10:15:36;21.30;99.90
12130;DHT22;6128;59.340;18.040;2023-09-07T10:18:10;21.30;99.90
12130;DHT22;6128;59.340;18.040;2023-09-07T10:20:50;21.30;99.90
12130;DHT22;6128;59.340;18.040;2023-09-07T10:23:18;21.20;99.90
12130;DHT22;6128;59.340;18.040;2023-09-07T10:25:49;21.10;99.90
12130;DHT22;6128;59.340;18.040;2023-09-07T10:28:23;21.20;99.90
12130;DHT22;6128;59.340;18.040;2023-09-07T10:31:01;21.40;99.90
12130;DHT22;6128;59.340;18.040;2023-09-07T10:33:32;21.50;99.90
12130;DHT22;6128;59.340;18.040;2023-09-07T10:35:59;21.40;99.90
12130;DHT22;6128;59.340;18.040;2023-09-07T10:38:27;21.30;99.90
12130;DHT22;6128;59.340;18.040;2023-09-07T10:40:58;21.30;99.90
12130;DHT22;6128;59.340;18.040;2023-09-07T10:43:26;21.30;99.90
12130;DHT22;6128;59.340;18.040;2023-09-07T10:45:53;21.50;99.90
12130;DHT22;6128;59.340;18.040;2023-09-07T10:48:21;21.50;99.90
12130;DHT22;6128;59.340;18.040;2023-09-07T10:50:50;21.60;99.90
12130;DHT22;6128;59.340;18.040;2023-09-07T10:53:25;21.70;99.90
12130;DHT22;6128;59.340;18.040;2023-09-07T10:55:53;21.70;99.90
12130;DHT22;6128;59.340;18.040;2023-09-07T10:58:29;21.70;99.90
12130;DHT22;6128;59.340;18.040;2023-09-07T11:00:59;21.70;99.90
12130;DHT22;6128;59.340;18.040;2023-09-07T11:03:27;21.80;99.90
12130;DHT22;6128;59.340;18.040;2023-09-07T11:05:58;21.70;99.90
12130;DHT22;6128;59.340;18.040;2023-09-07T11:08:27;21.80;99.90
12130;DHT22;6128;59.340;18.040;2023-09-07T11:10:56;21.70;99.90
12130;DHT22;6128;59.340;18.040;2023-09-07T11:13:24;21.60;99.90
12130;DHT22;6128;59.340;18.040;2023-09-07T11:15:54;21.50;99.90
12130;DHT22;6128;59.340;18.040;2023-09-07T11:18:22;21.60;99.90
12130;DHT22;6128;59.340;18.040;2023-09-07T11:20:50;21.60;99.90
12130;DHT22;6128;59.340;18.040;2023-09-07T11:23:19;21.50;99.90
12130;DHT22;6128;59.340;18.040;2023-09-07T11:25:47;21.50;99.90
12130;DHT22;6128;59.340;18.040;2023-09-07T11:28:16;21.60;99.90
12130;DHT22;6128;59.340;18.040;2023-09-07T11:30:50;21.50;99.90
12130;DHT22;6128;59.340;18.040;2023-09-07T11:33:17;21.50;99.90
12130;DHT22;6128;59.340;18.040;2023-09-07T11:35:45;21.50;99.90
12130;DHT22;6128;59.340;18.040;2023-09-07T11:38:13;21.50;99.90
12130;DHT22;6128;59.340;18.040;2023-09-07T11:40:42;21.50;99.90
12130;DHT22;6128;59.340;18.040;2023-09-07T11:43:10;21.50;99.90
12130;DHT22;6128;59.340;18.040;2023-09-07T11:45:38;21.40;99.90
12130;DHT22;6128;59.340;18.040;2023-09-07T11:48:06;21.50;99.90
12130;DHT22;6128;59.340;18.040;2023-09-07T11:50:35;21.50;99.90
12130;DHT22;6128;59.340;18.040;2023-09-07T11:53:02;21.50;99.90
12130;DHT22;6128;59.340;18.040;2023-09-07T11:55:29;21.50;99.90
12130;DHT22;6128;59.340;18.040;2023-09-07T11:57:58;21.60;99.90
12130;DHT22;6128;59.340;18.040;2023-09-07T12:00:25;21.40;99.90
12130;DHT22;6128;59.340;18.040;2023-09-07T12:02:52;21.30;99.90
12130;DHT22;6128;59.340;18.040;2023-09-07T12:05:19;21.40;99.90
12130;DHT22;6128;59.340;18.040;2023-09-07T12:07:46;21.50;99.90
12130;DHT22;6128;59.340;18.040;2023-09-07T12:10:13;21.50;99.90
12130;DHT22;6128;59.340;18.040;2023-09-07T12:12:41;21.50;99.90
12130;DHT22;6128;59.340;18.040;2023-09-07T12:15:11;21.70;99.90
12130;DHT22;6128;59.340;18.040;2023-09-07T12:17:38;21.70;99.90
12130;DHT22;6128;59.340;18.040;2023-09-07T12:20:06;21.70;99.90
12130;DHT22;6128;59.340;18.040;2023-09-07T12:22:36;21.90;99.90
12130;DHT22;6128;59.340;18.040;2023-09-07T12:25:04;22.00;99.90
12130;DHT22;6128;59.340;18.040;2023-09-07T12:27:32;22.10;99.90
12130;DHT22;6128;59.340;18.040;2023-09-07T12:30:00;22.20;99.90
12130;DHT22;6128;59.340;18.040;2023-09-07T12:32:33;22.30;99.90
12130;DHT22;6128;59.340;18.040;2023-09-07T12:35:00;22.20;99.90
12130;DHT22;6128;59.340;18.040;2023-09-07T12:37:27;21.90;99.90
12130;DHT22;6128;59.340;18.040;2023-09-07T12:39:54;21.80;99.90
12130;DHT22;6128;59.340;18.040;2023-09-07T12:42:22;21.70;99.90
12130;DHT22;6128;59.340;18.040;2023-09-07T12:44:50;21.60;99.90
12130;DHT22;6128;59.340;18.040;2023-09-07T12:47:17;21.60;99.90
12130;DHT22;6128;59.340;18.040;2023-09-07T12:49:45;21.60;99.90
12130;DHT22;6128;59.340;18.040;2023-09-07T12:52:13;21.60;99.90
12130;DHT22;6128;59.340;18.040;2023-09-07T12:54:41;21.60;99.90
12130;DHT22;6128;59.340;18.040;2023-09-07T12:57:08;21.60;99.90
12130;DHT22;6128;59.340;18.040;2023-09-07T12:59:36;21.60;99.90
12130;DHT22;6128;59.340;18.040;2023-09-07T13:02:03;21.60;99.90
12130;DHT22;6128;59.340;18.040;2023-09-07T13:04:30;21.60;99.90
12130;DHT22;6128;59.340;18.040;2023-09-07T13:06:59;21.70;99.90
12130;DHT22;6128;59.340;18.040;2023-09-07T13:09:26;21.70;99.90
12130;DHT22;6128;59.340;18.040;2023-09-07T13:11:53;21.70;99.90
12130;DHT22;6128;59.340;18.040;2023-09-07T13:14:21;21.60;99.90
12130;DHT22;6128;59.340;18.040;2023-09-07T13:16:48;21.60;99.90
12130;DHT22;6128;59.340;18.040;2023-09-07T13:19:16;21.50;99.90
12130;DHT22;6128;59.340;18.040;2023-09-07T13:21:43;21.40;99.90
12130;DHT22;6128;59.340;18.040;2023-09-07T13:24:11;21.40;99.90
12130;DHT22;6128;59.340;18.040;2023-09-07T13:26:39;21.40;99.90
12130;DHT22;6128;59.340;18.040;2023-09-07T13:29:07;21.40;99.90
12130;DHT22;6128;59.340;18.040;2023-09-07T13:31:34;21.40;99.90
12130;DHT22;6128;59.340;18.040;2023-09-07T13:34:01;21.50;99.90
12130;DHT22;6128;59.340;18.040;2023-09-07T13:36:28;21.40;99.90
12130;DHT22;6128;59.340;18.040;2023-09-07T13:38:55;21.30;99.90
12130;DHT22;6128;59.340;18.040;2023-09-07T13:41:24;21.30;99.90
12130;DHT22;6128;59.340;18.040;2023-09-07T13:43:51;21.30;99.90
12130;DHT22;6128;59.340;18.040;2023-09-07T13:46:19;21.20;99.90
12130;DHT22;6128;59.340;18.040;2023-09-07T13:48:46;21.30;99.90
12130;DHT22;6128;59.340;18.040;2023-09-07T13:51:14;21.30;99.90
12130;DHT22;6128;59.340;18.040;2023-09-07T13:53:41;21.30;99.90
12130;DHT22;6128;59.340;18.040;2023-09-07T13:56:08;21.40;99.90
12130;DHT22;6128;59.340;18.040;2023-09-07T13:58:36;21.40;99.90
12130;DHT22;6128;59.340;18.040;2023-09-07T14:01:03;21.40;99.90
12130;DHT22;6128;59.340;18.040;2023-09-07T14:03:30;21.40;99.90
12130;DHT22;6128;59.340;18.040;2023-09-07T14:05:57;21.30;99.90
12130;DHT22;6128;59.340;18.040;2023-09-07T14:08:24;21.30;99.90
12130;DHT22;6128;59.340;18.040;2023-09-07T14:10:51;21.20;99.90
12130;DHT22;6128;59.340;18.040;2023-09-07T14:13:19;21.20;99.90
12130;DHT22;6128;59.340;18.040;2023-09-07T14:15:50;21.10;99.90
12130;DHT22;6128;59.340;18.040;2023-09-07T14:18:17;21.00;99.90
12130;DHT22;6128;59.340;18.040;2023-09-07T14:20:44;20.90;99.90
12130;DHT22;6128;59.340;18.040;2023-09-07T14:23:11;20.90;99.90
12130;DHT22;6128;59.340;18.040;2023-09-07T14:25:39;20.90;99.90
12130;DHT22;6128;59.340;18.040;2023-09-07T14:28:07;20.90;99.90
12130;DHT22;6128;59.340;18.040;2023-09-07T14:30:34;20.90;99.90
12130;DHT22;6128;59.340;18.040;2023-09-07T14:33:03;21.00;99.90
12130;DHT22;6128;59.340;18.040;2023-09-07T14:35:31;20.90;99.90
12130;DHT22;6128;59.340;18.040;2023-09-07T14:37:58;20.90;99.90
12130;DHT22;6128;59.340;18.040;2023-09-07T14:40:26;20.90;99.90
12130;DHT22;6128;59.340;18.040;2023-09-07T14:42:53;20.80;99.90
12130;DHT22;6128;59.340;18.040;2023-09-07T14:45:23;20.70;99.90
12130;DHT22;6128;59.340;18.040;2023-09-07T14:47:50;20.70;99.90
12130;DHT22;6128;59.340;18.040;2023-09-07T14:50:19;20.60;99.90
12130;DHT22;6128;59.340;18.040;2023-09-07T14:52:47;20.70;99.90
12130;DHT22;6128;59.340;18.040;2023-09-07T14:55:14;20.60;99.90
12130;DHT22;6128;59.340;18.040;2023-09-07T14:57:41;20.50;99.90
12130;DHT22;6128;59.340;18.040;2023-09-07T15:00:10;20.50;99.90
12130;DHT22;6128;59.340;18.040;2023-09-07T15:02:37;20.50;99.90
12130;DHT22;6128;59.340;18.040;2023-09-07T15:05:05;20.50;99.90
12130;DHT22;6128;59.340;18.040;2023-09-07T15:07:34;20.50;99.90
12130;DHT22;6128;59.340;18.040;2023-09-07T15:10:02;20.50;99.90
12130;DHT22;6128;59.340;18.040;2023-09-07T15:12:30;20.50;99.90
12130;DHT22;6128;59.340;18.040;2023-09-07T15:14:57;20.50;99.90
12130;DHT22;6128;59.340;18.040;2023-09-07T15:17:24;20.50;99.90
12130;DHT22;6128;59.340;18.040;2023-09-07T15:19:51;20.50;99.90
12130;DHT22;6128;59.340;18.040;2023-09-07T15:22:18;20.40;99.90
12130;DHT22;6128;59.340;18.040;2023-09-07T15:24:47;20.40;99.90
12130;DHT22;6128;59.340;18.040;2023-09-07T15:27:15;20.40;99.90
12130;DHT22;6128;59.340;18.040;2023-09-07T15:29:43;20.40;99.90
12130;DHT22;6128;59.340;18.040;2023-09-07T15:32:11;20.30;99.90
12130;DHT22;6128;59.340;18.040;2023-09-07T15:34:38;20.30;99.90